Time;durP1;ratioP1;P1;durP2;ratioP2;P2;SDS_P1;SDS_P2;PMS_P1;PMS_P2;Temp;Humidity;BMP_temperature;BMP_pressure;BME280_temperature;BME280_humidity;BME280_pressure;Samples;Min_cycle;Max_cycle;Signal;HPM_P1;HPM_P2
2024/01/04 00:00:10;;;;;;;;;;;;;;;19.58;49.10;98482.06;2057932;28;6174;-71
2024/01/04 00:01:12;;;;;;;;;;;;;;;19.57;49.12;98478.50;2063627;28;1876;-72
2024/01/04 00:02:13;;;;;;;;;;;;;;;19.58;49.07;98477.06;2060239;28;2025;-71
2024/01/04 00:03:15;;;;;;;;;;;;;;;19.58;48.99;98476.34;2058665;28;2071;-71
2024/01/04 00:04:16;;;;;;;;;;;;;;;19.57;48.98;98478.50;2062370;28;1985;-71
2024/01/04 00:05:18;;;;;;;;;;;;;;;19.56;49.09;98479.94;2059714;28;2003;-71
2024/01/04 00:06:20;;;;;;;;;;;;;;;19.56;49.11;98474.19;2062798;28;1714;-72
2024/01/04 00:07:21;;;;;;;;;;;;;;;19.56;49.20;98479.94;2059495;28;1761;-71
2024/01/04 00:08:23;;;;;;;;;;;;;;;19.56;49.01;98479.94;2060652;28;2036;-72
2024/01/04 00:09:24;;;;;;;;;;;;;;;19.56;48.97;98474.19;2060866;28;2132;-71
2024/01/04 00:10:25;;;;;;;;;;;;;;;19.56;49.12;98479.94;2060335;28;1623;-72
2024/01/04 00:11:27;;;;;;;;;;;;;;;19.56;49.06;98471.31;2062152;28;1722;-71
2024/01/04 00:12:28;;;;;;;;;;;;;;;19.55;49.15;98475.59;2059066;28;2218;-71
2024/01/04 00:13:30;;;;;;;;;;;;;;;19.56;49.15;98474.19;2060421;28;2209;-71
2024/01/04 00:14:31;;;;;;;;;;;;;;;19.56;49.05;98482.78;2063128;28;1957;-72
2024/01/04 00:15:34;;;;;;;;;;;;;;;19.55;49.06;98478.47;2059992;28;1686;-71
2024/01/04 00:16:36;;;;;;;;;;;;;;;19.55;48.86;98478.47;2057532;28;1737;-71
2024/01/04 00:17:37;;;;;;;;;;;;;;;19.55;48.98;98478.47;2059890;28;1674;-71
2024/01/04 00:18:38;;;;;;;;;;;;;;;19.55;48.82;98478.47;2057834;28;2161;-71
2024/01/04 00:19:40;;;;;;;;;;;;;;;19.55;49.06;98481.34;2058270;28;1952;-71
2024/01/04 00:20:42;;;;;;;;;;;;;;;19.55;48.95;98478.47;2064825;28;1638;-71
2024/01/04 00:21:43;;;;;;;;;;;;;;;19.54;48.96;98477.03;2060440;28;1956;-71
2024/01/04 00:22:45;;;;;;;;;;;;;;;19.54;48.95;98482.03;2060868;28;1627;-71
2024/01/04 00:23:46;;;;;;;;;;;;;;;19.55;48.91;98466.25;2056866;28;2154;-71
2024/01/04 00:24:48;;;;;;;;;;;;;;;19.54;49.03;98474.16;2058645;28;2139;-71
2024/01/04 00:25:49;;;;;;;;;;;;;;;19.54;48.92;98477.03;2059611;28;1696;-72
2024/01/04 00:26:50;;;;;;;;;;;;;;;19.54;48.98;98476.28;2061400;28;2079;-71
2024/01/04 00:27:52;;;;;;;;;;;;;;;19.54;49.00;98482.78;2061350;28;2057;-71
2024/01/04 00:28:54;;;;;;;;;;;;;;;19.53;49.01;98481.31;2060846;28;2108;-71
2024/01/04 00:29:55;;;;;;;;;;;;;;;19.53;48.98;98487.03;2059715;28;2177;-71
2024/01/04 00:30:57;;;;;;;;;;;;;;;19.53;48.91;98489.91;2060693;28;5986;-71
2024/01/04 00:31:58;;;;;;;;;;;;;;;19.52;49.08;98485.63;2063828;28;1698;-71
2024/01/04 00:32:59;;;;;;;;;;;;;;;19.53;49.05;98480.59;2057624;28;1683;-71
2024/01/04 00:34:02;;;;;;;;;;;;;;;19.52;48.86;98479.16;2060528;28;2184;-71
2024/01/04 00:35:03;;;;;;;;;;;;;;;19.54;48.95;98491.38;2058818;28;1707;-71
2024/01/04 00:36:06;;;;;;;;;;;;;;;19.53;48.93;98484.19;2059149;28;1576;-71
2024/01/04 00:37:07;;;;;;;;;;;;;;;19.53;48.84;98492.78;2060628;28;2004;-71
2024/01/04 00:38:09;;;;;;;;;;;;;;;19.53;48.90;98492.78;2060085;28;2207;-70
2024/01/04 00:39:10;;;;;;;;;;;;;;;19.52;48.80;98497.09;2062284;28;2168;-71
2024/01/04 00:40:12;;;;;;;;;;;;;;;19.52;48.86;98488.47;2060517;28;2047;-72
2024/01/04 00:41:15;;;;;;;;;;;;;;;19.52;48.98;98497.09;2059156;28;1939;-71
2024/01/04 00:42:16;;;;;;;;;;;;;;;19.52;49.01;98496.38;2064253;28;1727;-71
2024/01/04 00:43:17;;;;;;;;;;;;;;;19.52;49.03;98502.13;2062031;28;1627;-71
2024/01/04 00:44:19;;;;;;;;;;;;;;;19.51;48.89;98495.63;2059588;28;2070;-71
2024/01/04 00:45:21;;;;;;;;;;;;;;;19.51;48.92;98501.38;2060797;28;2026;-72
2024/01/04 00:46:23;;;;;;;;;;;;;;;19.52;48.89;98496.38;2062862;28;1794;-71
2024/01/04 00:47:25;;;;;;;;;;;;;;;19.51;48.90;98492.75;2060249;28;1691;-71
2024/01/04 00:48:26;;;;;;;;;;;;;;;19.51;48.96;98495.63;2058812;28;2116;-71
2024/01/04 00:49:28;;;;;;;;;;;;;;;19.50;48.93;98494.19;2061018;28;2113;-71
2024/01/04 00:50:29;;;;;;;;;;;;;;;19.51;48.87;98495.63;2059214;28;2287;-71
2024/01/04 00:51:31;;;;;;;;;;;;;;;19.52;48.85;98490.63;2049502;28;1913;-71
2024/01/04 00:52:32;;;;;;;;;;;;;;;19.52;48.74;98497.09;2051977;28;1872;-71
2024/01/04 00:53:34;;;;;;;;;;;;;;;19.53;48.74;98498.53;2058702;28;1879;-72
2024/01/04 00:54:35;;;;;;;;;;;;;;;19.52;48.70;98497.09;2059576;28;2105;-71
2024/01/04 00:55:37;;;;;;;;;;;;;;;19.52;48.75;98502.84;2063422;28;1597;-70
2024/01/04 00:56:38;;;;;;;;;;;;;;;19.52;48.84;98502.84;2062396;28;1476;-72
2024/01/04 00:57:39;;;;;;;;;;;;;;;19.51;48.72;98501.38;2058030;28;1817;-72
2024/01/04 00:58:41;;;;;;;;;;;;;;;19.51;48.89;98494.91;2060677;28;2148;-71
2024/01/04 00:59:42;;;;;;;;;;;;;;;19.50;48.89;98502.81;2063707;28;1551;-71
2024/01/04 01:00:44;;;;;;;;;;;;;;;19.52;48.73;98499.97;2061890;28;5989;-71
2024/01/04 01:01:45;;;;;;;;;;;;;;;19.51;48.82;98501.38;2059698;28;1610;-71
2024/01/04 01:02:47;;;;;;;;;;;;;;;19.51;48.74;98501.38;2063146;28;2110;-72
2024/01/04 01:03:48;;;;;;;;;;;;;;;19.51;48.88;98503.53;2058246;28;1797;-71
2024/01/04 01:04:50;;;;;;;;;;;;;;;19.51;48.80;98504.25;2062039;28;2092;-71
2024/01/04 01:05:51;;;;;;;;;;;;;;;19.50;48.82;98499.94;2060593;28;1607;-72
2024/01/04 01:06:53;;;;;;;;;;;;;;;19.49;48.77;98504.22;2061253;28;1979;-71
2024/01/04 01:07:54;;;;;;;;;;;;;;;19.49;48.70;98504.22;2061986;28;1557;-71
2024/01/04 01:08:56;;;;;;;;;;;;;;;19.51;48.75;98506.41;2060412;28;2124;-71
2024/01/04 01:09:57;;;;;;;;;;;;;;;19.50;48.71;98499.22;2057931;28;1541;-71
2024/01/04 01:11:02;;;;;;;;;;;;;;;19.50;48.69;98499.22;2061970;28;1646;-71
2024/01/04 01:12:03;;;;;;;;;;;;;;;19.49;48.73;98504.22;2060763;28;1738;-71
2024/01/04 01:13:05;;;;;;;;;;;;;;;19.49;48.86;98504.22;2062527;28;1553;-71
2024/01/04 01:14:07;;;;;;;;;;;;;;;19.48;48.83;98502.78;2066246;28;2094;-71
2024/01/04 01:15:09;;;;;;;;;;;;;;;19.48;48.80;98505.66;2058998;28;2108;-72
2024/01/04 01:16:10;;;;;;;;;;;;;;;19.49;48.77;98498.47;2060450;28;1874;-71
2024/01/04 01:17:12;;;;;;;;;;;;;;;19.49;48.70;98509.25;2059723;28;1676;-70
2024/01/04 01:18:14;;;;;;;;;;;;;;;19.48;48.71;98508.53;2063008;28;2229;-71
2024/01/04 01:19:15;;;;;;;;;;;;;;;19.47;48.64;98501.34;2058639;28;2188;-72
2024/01/04 01:20:17;;;;;;;;;;;;;;;19.48;48.70;98507.81;2061639;28;1765;-71
2024/01/04 01:21:18;;;;;;;;;;;;;;;19.47;48.75;98507.09;2062532;28;1683;-71
2024/01/04 01:22:20;;;;;;;;;;;;;;;19.48;48.81;98511.38;2066227;28;1979;-71
2024/01/04 01:23:21;;;;;;;;;;;;;;;19.48;48.58;98502.78;2061294;28;2166;-72
2024/01/04 01:24:23;;;;;;;;;;;;;;;19.49;48.51;98509.25;2062465;28;2348;-71
2024/01/04 01:25:24;;;;;;;;;;;;;;;19.48;48.69;98508.53;2064470;28;1903;-70
2024/01/04 01:26:26;;;;;;;;;;;;;;;19.47;48.78;98512.81;2065904;28;1869;-72
2024/01/04 01:27:27;;;;;;;;;;;;;;;19.47;48.68;98501.34;2062825;28;1640;-71
2024/01/04 01:28:29;;;;;;;;;;;;;;;19.47;48.62;98507.09;2057492;28;2105;-71
2024/01/04 01:29:30;;;;;;;;;;;;;;;19.46;48.69;98505.63;2060900;28;2091;-71
2024/01/04 01:30:31;;;;;;;;;;;;;;;19.45;48.64;98504.91;2060989;28;6016;-71
2024/01/04 01:31:38;;;;;;;;;;;;;;;19.46;48.82;98503.47;2058548;28;1839;-71
2024/01/04 01:32:40;;;;;;;;;;;;;;;19.47;48.61;98512.81;2062419;28;2143;-71
2024/01/04 01:33:43;;;;;;;;;;;;;;;19.47;48.68;98509.94;2063082;28;2102;-71
2024/01/04 01:34:45;;;;;;;;;;;;;;;19.46;48.64;98506.34;2061039;28;2161;-71
2024/01/04 01:35:46;;;;;;;;;;;;;;;19.46;48.74;98499.88;2062987;28;2078;-71
2024/01/04 01:36:47;;;;;;;;;;;;;;;19.47;48.78;98512.81;2061847;28;1830;-71
2024/01/04 01:37:49;;;;;;;;;;;;;;;19.46;48.66;98512.06;2062017;28;1652;-72
2024/01/04 01:38:50;;;;;;;;;;;;;;;19.46;48.64;98517.09;2064499;28;1919;-71
2024/01/04 01:39:52;;;;;;;;;;;;;;;19.46;48.58;98505.63;2065651;28;2054;-71
2024/01/04 01:40:53;;;;;;;;;;;;;;;19.45;48.53;98513.50;2060389;28;2053;-71
2024/01/04 01:41:55;;;;;;;;;;;;;;;19.46;48.64;98508.50;2068408;28;1773;-71
2024/01/04 01:42:59;;;;;;;;;;;;;;;19.45;48.71;98512.78;2060425;28;2223;-71
2024/01/04 01:44:00;;;;;;;;;;;;;;;19.45;48.58;98504.19;2060144;28;1635;-71
2024/01/04 01:45:01;;;;;;;;;;;;;;;19.45;48.61;98504.19;2066728;28;2147;-71
2024/01/04 01:46:03;;;;;;;;;;;;;;;19.44;48.63;98508.47;2059788;28;1910;-71
2024/01/04 01:47:04;;;;;;;;;;;;;;;19.45;48.54;98510.63;2060736;28;1638;-71
2024/01/04 01:48:06;;;;;;;;;;;;;;;19.45;48.63;98519.25;2063465;28;2030;-71
2024/01/04 01:49:08;;;;;;;;;;;;;;;19.46;48.68;98517.09;2059389;28;1968;-71
2024/01/04 01:50:09;;;;;;;;;;;;;;;19.45;48.66;98518.53;2059686;28;2106;-71
2024/01/04 01:51:11;;;;;;;;;;;;;;;19.45;48.56;98509.91;2062236;28;1699;-71
2024/01/04 01:52:12;;;;;;;;;;;;;;;19.44;48.67;98514.19;2063209;28;1834;-70
2024/01/04 01:53:14;;;;;;;;;;;;;;;19.44;48.65;98520.66;2064706;28;1857;-71
2024/01/04 01:54:16;;;;;;;;;;;;;;;19.44;48.58;98525.69;2058653;28;2120;-72
2024/01/04 01:55:17;;;;;;;;;;;;;;;19.44;48.70;98519.94;2065084;28;1851;-71
2024/01/04 01:56:18;;;;;;;;;;;;;;;19.43;48.52;98518.50;2064097;28;1604;-71
2024/01/04 01:57:20;;;;;;;;;;;;;;;19.43;48.60;98527.13;2062236;28;1947;-72
2024/01/04 01:58:21;;;;;;;;;;;;;;;19.44;48.46;98519.94;2059305;28;2110;-71
2024/01/04 01:59:23;;;;;;;;;;;;;;;19.43;48.62;98518.50;2062488;28;1679;-70
2024/01/04 02:00:28;;;;;;;;;;;;;;;19.43;48.63;98527.13;2055631;28;6444;-71
2024/01/04 02:01:29;;;;;;;;;;;;;;;19.44;48.64;98525.69;2055029;28;2086;-71
2024/01/04 02:02:31;;;;;;;;;;;;;;;19.42;48.44;98529.25;2060304;28;2114;-71
2024/01/04 02:03:32;;;;;;;;;;;;;;;19.42;48.51;98522.78;2060651;28;2106;-71
2024/01/04 02:04:34;;;;;;;;;;;;;;;19.43;48.69;98516.34;2062552;28;2126;-71
2024/01/04 02:05:35;;;;;;;;;;;;;;;19.42;48.69;98517.03;2063603;28;2120;-71
2024/01/04 02:06:37;;;;;;;;;;;;;;;19.41;48.42;98527.09;2063787;28;1655;-71
2024/01/04 02:07:38;;;;;;;;;;;;;;;19.41;48.72;98527.09;2061607;28;1718;-71
2024/01/04 02:08:40;;;;;;;;;;;;;;;19.43;48.51;98524.25;2059701;28;2059;-71
2024/01/04 02:09:41;;;;;;;;;;;;;;;19.43;48.66;98524.25;2063369;28;1631;-71
2024/01/04 02:10:43;;;;;;;;;;;;;;;19.41;48.45;98527.81;2063247;28;2116;-71
2024/01/04 02:11:44;;;;;;;;;;;;;;;19.41;48.63;98530.66;2065968;28;1974;-71
2024/01/04 02:12:46;;;;;;;;;;;;;;;19.41;48.53;98521.34;2062850;28;2147;-71
2024/01/04 02:13:47;;;;;;;;;;;;;;;19.41;48.63;98524.94;2062432;28;2122;-70
2024/01/04 02:14:52;;;;;;;;;;;;;;;19.41;48.57;98524.94;2062444;28;2013;-71
2024/01/04 02:15:54;;;;;;;;;;;;;;;19.40;48.58;98514.88;2061901;28;2223;-72
2024/01/04 02:16:55;;;;;;;;;;;;;;;19.40;48.61;98522.75;2061630;28;1657;-71
2024/01/04 02:17:57;;;;;;;;;;;;;;;19.40;48.42;98525.63;2060720;28;2090;-71
2024/01/04 02:18:58;;;;;;;;;;;;;;;19.40;48.59;98514.16;2061575;28;2050;-71
2024/01/04 02:20:00;;;;;;;;;;;;;;;19.40;48.69;98514.16;2057492;28;1731;-71
2024/01/04 02:21:02;;;;;;;;;;;;;;;19.39;48.52;98509.84;2062526;28;2337;-71
2024/01/04 02:22:03;;;;;;;;;;;;;;;19.41;48.58;98507.00;2063575;28;1611;-71
2024/01/04 02:23:05;;;;;;;;;;;;;;;19.39;48.55;98518.44;2060319;28;1941;-71
2024/01/04 02:24:06;;;;;;;;;;;;;;;19.39;48.52;98518.44;2061195;28;2154;-72
2024/01/04 02:25:08;;;;;;;;;;;;;;;19.39;48.60;98515.56;2061376;28;1614;-71
2024/01/04 02:26:09;;;;;;;;;;;;;;;19.39;48.65;98522.03;2054485;28;1915;-71
2024/01/04 02:27:11;;;;;;;;;;;;;;;19.39;48.53;98518.44;2051597;28;2103;-71
2024/01/04 02:28:13;;;;;;;;;;;;;;;19.39;48.61;98521.31;2057245;28;1571;-72
2024/01/04 02:29:14;;;;;;;;;;;;;;;19.39;48.64;98521.31;2060223;28;2125;-71
2024/01/04 02:30:16;;;;;;;;;;;;;;;19.39;48.61;98522.03;2057702;28;6262;-71
2024/01/04 02:31:17;;;;;;;;;;;;;;;19.38;48.56;98517.00;2059911;28;2057;-70
2024/01/04 02:32:19;;;;;;;;;;;;;;;19.38;48.54;98508.41;2066442;28;1825;-71
2024/01/04 02:33:20;;;;;;;;;;;;;;;19.39;48.44;98512.72;2061764;28;1791;-71
2024/01/04 02:34:22;;;;;;;;;;;;;;;19.37;48.51;98521.28;2059276;28;1933;-71
2024/01/04 02:35:24;;;;;;;;;;;;;;;19.38;48.50;98523.47;2060531;28;1919;-71
2024/01/04 02:36:25;;;;;;;;;;;;;;;19.37;48.60;98527.75;2059182;28;2224;-72
2024/01/04 02:37:26;;;;;;;;;;;;;;;19.37;48.46;98527.03;2059986;28;1727;-71
2024/01/04 02:38:28;;;;;;;;;;;;;;;19.37;48.57;98529.91;2061734;28;1706;-71
2024/01/04 02:39:29;;;;;;;;;;;;;;;19.37;48.64;98532.75;2059929;28;2093;-70
2024/01/04 02:40:31;;;;;;;;;;;;;;;19.37;48.59;98529.91;2059770;28;1773;-71
2024/01/04 02:41:32;;;;;;;;;;;;;;;19.36;48.50;98531.31;2061831;28;1731;-71
2024/01/04 02:42:33;;;;;;;;;;;;;;;19.36;48.36;98532.03;2063768;28;1857;-71
2024/01/04 02:43:35;;;;;;;;;;;;;;;19.36;48.62;98539.94;2058321;28;2221;-71
2024/01/04 02:44:36;;;;;;;;;;;;;;;19.36;48.63;98534.19;2064207;28;1986;-71
2024/01/04 02:45:38;;;;;;;;;;;;;;;19.36;48.48;98534.19;2057998;28;2095;-71
2024/01/04 02:46:39;;;;;;;;;;;;;;;19.36;48.58;98539.94;2059583;28;1987;-71
2024/01/04 02:47:42;;;;;;;;;;;;;;;19.35;48.53;98536.31;2060872;28;2121;-71
2024/01/04 02:48:43;;;;;;;;;;;;;;;19.36;48.55;98537.06;2064126;28;1632;-71
2024/01/04 02:49:45;;;;;;;;;;;;;;;19.35;48.62;98536.31;2060737;28;2085;-71
2024/01/04 02:50:46;;;;;;;;;;;;;;;19.36;48.62;98537.78;2060529;28;2345;-71
2024/01/04 02:51:48;;;;;;;;;;;;;;;19.37;48.57;98544.25;2059711;28;1747;-71
2024/01/04 02:52:49;;;;;;;;;;;;;;;19.36;48.61;98537.06;2060777;28;1869;-71
2024/01/04 02:53:51;;;;;;;;;;;;;;;19.36;48.68;98534.19;2058357;28;1881;-71
2024/01/04 02:54:52;;;;;;;;;;;;;;;19.35;48.61;98536.31;2061214;28;2182;-71
2024/01/04 02:55:54;;;;;;;;;;;;;;;19.35;48.66;98541.34;2063008;28;1702;-71
2024/01/04 02:56:56;;;;;;;;;;;;;;;19.35;48.62;98542.06;2065529;28;1893;-72
2024/01/04 02:57:57;;;;;;;;;;;;;;;19.34;48.53;98528.44;2062034;28;1927;-71
2024/01/04 02:58:59;;;;;;;;;;;;;;;19.34;48.69;98539.91;2061438;28;1634;-71
2024/01/04 03:00:00;;;;;;;;;;;;;;;19.35;48.58;98532.72;2059391;28;2069;-71
2024/01/04 03:01:02;;;;;;;;;;;;;;;19.34;48.61;98534.16;2060665;28;6007;-71
2024/01/04 03:02:04;;;;;;;;;;;;;;;19.34;48.65;98534.16;2061637;28;1676;-71
2024/01/04 03:03:06;;;;;;;;;;;;;;;19.34;48.55;98539.91;2063428;28;1665;-71
2024/01/04 03:04:07;;;;;;;;;;;;;;;19.34;48.66;98528.44;2057258;28;1666;-71
2024/01/04 03:05:08;;;;;;;;;;;;;;;19.33;48.62;98532.69;2060072;28;2034;-71
2024/01/04 03:06:10;;;;;;;;;;;;;;;19.32;48.68;98526.25;2060285;28;2019;-71
2024/01/04 03:07:12;;;;;;;;;;;;;;;19.32;48.72;98526.25;2058632;28;1611;-71
2024/01/04 03:08:13;;;;;;;;;;;;;;;19.33;48.76;98526.97;2061200;28;1965;-72
2024/01/04 03:09:15;;;;;;;;;;;;;;;19.33;48.65;98529.84;2062428;28;2124;-70
2024/01/04 03:10:16;;;;;;;;;;;;;;;19.33;48.67;98532.69;2062240;28;2510;-71
2024/01/04 03:11:18;;;;;;;;;;;;;;;19.33;48.73;98527.69;2057591;28;2045;-71
2024/01/04 03:12:19;;;;;;;;;;;;;;;19.32;48.71;98531.28;2059818;28;1695;-71
2024/01/04 03:13:20;;;;;;;;;;;;;;;19.32;48.74;98531.28;2062330;28;1628;-71
2024/01/04 03:14:22;;;;;;;;;;;;;;;19.32;48.71;98528.41;2055997;28;2142;-71
2024/01/04 03:15:23;;;;;;;;;;;;;;;19.31;48.77;98530.56;2059681;28;2156;-70
2024/01/04 03:16:25;;;;;;;;;;;;;;;19.32;48.71;98528.41;2060393;28;1714;-71
2024/01/04 03:17:26;;;;;;;;;;;;;;;19.32;48.71;98531.28;2060903;28;1682;-71
2024/01/04 03:18:28;;;;;;;;;;;;;;;19.33;48.78;98529.84;2060533;28;2015;-71
2024/01/04 03:19:30;;;;;;;;;;;;;;;19.32;48.83;98525.53;2059881;28;2106;-71
2024/01/04 03:20:31;;;;;;;;;;;;;;;19.33;48.67;98532.69;2058124;28;1551;-71
2024/01/04 03:21:33;;;;;;;;;;;;;;;19.32;48.67;98531.28;2061117;28;2108;-71
2024/01/04 03:22:34;;;;;;;;;;;;;;;19.31;48.73;98530.56;2061266;28;1770;-71
2024/01/04 03:23:36;;;;;;;;;;;;;;;19.31;48.66;98524.06;2058420;28;2450;-71
2024/01/04 03:24:37;;;;;;;;;;;;;;;19.32;48.66;98531.28;2060618;28;2344;-71
2024/01/04 03:25:38;;;;;;;;;;;;;;;19.32;48.64;98531.28;2057274;28;2063;-71
2024/01/04 03:26:40;;;;;;;;;;;;;;;19.32;48.69;98531.28;2058886;28;1942;-71
2024/01/04 03:27:43;;;;;;;;;;;;;;;19.31;48.75;98526.94;2063910;28;1956;-71
2024/01/04 03:28:44;;;;;;;;;;;;;;;19.32;48.66;98531.28;2062030;28;1710;-71
2024/01/04 03:29:46;;;;;;;;;;;;;;;19.31;48.60;98530.56;2061145;28;2228;-71
2024/01/04 03:30:47;;;;;;;;;;;;;;;19.31;48.65;98535.53;2060174;28;6172;-71
2024/01/04 03:31:49;;;;;;;;;;;;;;;19.30;48.64;98528.38;2062127;28;2104;-71
2024/01/04 03:32:50;;;;;;;;;;;;;;;19.30;48.74;98534.09;2060112;28;2015;-71
2024/01/04 03:33:52;;;;;;;;;;;;;;;19.30;48.68;98534.09;2057282;28;2140;-71
2024/01/04 03:34:54;;;;;;;;;;;;;;;19.31;48.67;98539.16;2058653;28;2082;-71
2024/01/04 03:35:55;;;;;;;;;;;;;;;19.31;48.79;98541.28;2052840;28;1546;-71
2024/01/04 03:36:57;;;;;;;;;;;;;;;19.30;48.72;98534.81;2053096;28;1930;-71
2024/01/04 03:37:58;;;;;;;;;;;;;;;19.30;48.86;98536.97;2061651;28;1669;-71
2024/01/04 03:38:59;;;;;;;;;;;;;;;19.30;48.77;98540.56;2061262;28;1993;-71
2024/01/04 03:40:01;;;;;;;;;;;;;;;19.30;48.57;98534.09;2058850;28;2086;-71
2024/01/04 03:41:02;;;;;;;;;;;;;;;19.29;48.70;98539.13;2060551;28;2075;-71
2024/01/04 03:42:04;;;;;;;;;;;;;;;19.29;48.72;98538.38;2060520;28;2001;-71
2024/01/04 03:43:05;;;;;;;;;;;;;;;19.30;48.71;98542.72;2056562;28;2111;-71
2024/01/04 03:44:07;;;;;;;;;;;;;;;19.29;48.71;98544.13;2058332;28;1929;-71
2024/01/04 03:45:08;;;;;;;;;;;;;;;19.29;48.71;98544.88;2059530;28;2104;-71
2024/01/04 03:46:10;;;;;;;;;;;;;;;19.29;48.68;98544.88;2062391;28;2165;-71
2024/01/04 03:47:13;;;;;;;;;;;;;;;19.30;48.61;98534.09;2062052;28;2178;-71
2024/01/04 03:48:14;;;;;;;;;;;;;;;19.29;48.72;98538.38;2060000;28;1650;-71
2024/01/04 03:49:16;;;;;;;;;;;;;;;19.29;48.68;98529.78;2057337;28;2058;-71
2024/01/04 03:50:17;;;;;;;;;;;;;;;19.29;48.64;98530.53;2060193;28;1862;-71
2024/01/04 03:51:19;;;;;;;;;;;;;;;19.30;48.64;98536.97;2061378;28;2053;-71
2024/01/04 03:52:20;;;;;;;;;;;;;;;19.31;48.66;98538.41;2057513;28;1818;-72
2024/01/04 03:53:22;;;;;;;;;;;;;;;19.32;48.67;98537.00;2058990;28;2436;-71
2024/01/04 03:54:23;;;;;;;;;;;;;;;19.32;48.62;98537.72;2060220;28;1954;-71
2024/01/04 03:55:24;;;;;;;;;;;;;;;19.32;48.71;98534.13;2061632;28;1940;-71
2024/01/04 03:56:26;;;;;;;;;;;;;;;19.33;48.75;98544.19;2059291;28;2350;-72
2024/01/04 03:57:27;;;;;;;;;;;;;;;19.33;48.68;98539.16;2061173;28;1742;-72
2024/01/04 03:58:29;;;;;;;;;;;;;;;19.34;48.75;98539.91;2062119;28;1588;-71
2024/01/04 03:59:30;;;;;;;;;;;;;;;19.35;48.75;98544.22;2060072;28;1908;-71
2024/01/04 04:00:31;;;;;;;;;;;;;;;19.36;48.81;98537.06;2056211;28;6022;-71
2024/01/04 04:01:33;;;;;;;;;;;;;;;19.36;48.73;98549.25;2061888;28;2097;-71
2024/01/04 04:02:34;;;;;;;;;;;;;;;19.38;48.81;98540.69;2060907;28;1877;-71
2024/01/04 04:03:36;;;;;;;;;;;;;;;19.38;48.85;98545.72;2060330;28;2174;-72
2024/01/04 04:04:37;;;;;;;;;;;;;;;19.38;48.83;98537.09;2058182;28;2325;-71
2024/01/04 04:05:44;;;;;;;;;;;;;;;19.39;48.97;98547.84;2057331;28;1790;-71
2024/01/04 04:06:45;;;;;;;;;;;;;;;19.39;48.99;98541.41;2057755;28;2145;-71
2024/01/04 04:07:47;;;;;;;;;;;;;;;19.39;48.94;98547.84;2060722;28;1726;-71
2024/01/04 04:08:48;;;;;;;;;;;;;;;19.39;49.02;98542.13;2058224;28;2062;-71
2024/01/04 04:09:50;;;;;;;;;;;;;;;19.39;48.94;98541.41;2060852;28;1675;-71
2024/01/04 04:10:51;;;;;;;;;;;;;;;19.39;48.99;98547.13;2057831;28;2081;-71
2024/01/04 04:11:53;;;;;;;;;;;;;;;19.40;49.00;98548.56;2063150;28;2288;-71
2024/01/04 04:12:54;;;;;;;;;;;;;;;19.39;48.96;98550.72;2060307;28;1712;-71
2024/01/04 04:13:56;;;;;;;;;;;;;;;19.39;49.08;98553.59;2060622;28;1707;-71
2024/01/04 04:14:57;;;;;;;;;;;;;;;19.41;49.08;98555.78;2059192;28;1952;-71
2024/01/04 04:16:00;;;;;;;;;;;;;;;19.39;49.10;98558.63;2059448;28;1878;-71
2024/01/04 04:17:02;;;;;;;;;;;;;;;19.39;49.07;98552.88;2053470;28;1658;-71
2024/01/04 04:18:03;;;;;;;;;;;;;;;19.39;48.94;98550.72;2056770;28;1604;-71
2024/01/04 04:19:05;;;;;;;;;;;;;;;19.39;49.03;98550.72;2059445;28;2085;-71
2024/01/04 04:20:06;;;;;;;;;;;;;;;19.39;49.00;98561.50;2060045;28;2148;-71
2024/01/04 04:21:08;;;;;;;;;;;;;;;19.39;48.98;98547.84;2059550;28;2213;-71
2024/01/04 04:22:09;;;;;;;;;;;;;;;19.40;48.93;98551.44;2060957;28;1687;-71
2024/01/04 04:23:11;;;;;;;;;;;;;;;19.41;49.14;98556.50;2059932;28;2026;-71
2024/01/04 04:24:12;;;;;;;;;;;;;;;19.42;49.15;98552.22;2061702;28;2178;-71
2024/01/04 04:25:14;;;;;;;;;;;;;;;19.42;49.20;98551.47;2060641;28;1588;-71
2024/01/04 04:26:21;;;;;;;;;;;;;;;19.42;49.22;98548.59;2059428;28;2039;-71
2024/01/04 04:27:22;;;;;;;;;;;;;;;19.43;49.29;98558.69;2056930;28;1988;-71
2024/01/04 04:28:26;;;;;;;;;;;;;;;19.43;49.06;98558.69;2058336;28;1643;-71
2024/01/04 04:29:28;;;;;;;;;;;;;;;19.43;49.14;98564.41;2053748;28;1847;-71
2024/01/04 04:30:29;;;;;;;;;;;;;;;19.44;49.33;98560.13;2053035;28;6325;-71
2024/01/04 04:31:31;;;;;;;;;;;;;;;19.44;49.29;98560.84;2057530;28;2104;-71
2024/01/04 04:32:32;;;;;;;;;;;;;;;19.46;49.14;98560.16;2054242;28;1941;-71
2024/01/04 04:33:34;;;;;;;;;;;;;;;19.45;49.11;98562.31;2054395;28;1692;-71
2024/01/04 04:34:35;;;;;;;;;;;;;;;19.46;49.28;98558.00;2057893;28;2078;-71
2024/01/04 04:35:37;;;;;;;;;;;;;;;19.45;49.33;98562.31;2059490;28;2057;-71
2024/01/04 04:36:55;;;;;;;;;;;;;;;19.46;49.37;98568.75;2057361;28;1996;-72
2024/01/04 04:37:56;;;;;;;;;;;;;;;19.46;49.31;98568.75;2062998;28;2073;-71
2024/01/04 04:39:02;;;;;;;;;;;;;;;19.46;49.30;98563.00;2061050;28;1902;-71
2024/01/04 04:40:03;;;;;;;;;;;;;;;19.46;49.26;98574.50;2063162;28;2014;-71
2024/01/04 04:41:05;;;;;;;;;;;;;;;19.46;49.34;98580.22;2061078;28;1989;-71
2024/01/04 04:42:06;;;;;;;;;;;;;;;19.46;49.45;98571.63;2059459;28;1575;-73
2024/01/04 04:43:08;;;;;;;;;;;;;;;19.45;49.41;98578.81;2059345;28;2216;-71
2024/01/04 04:44:09;;;;;;;;;;;;;;;19.45;49.32;98568.03;2060168;28;1532;-73
2024/01/04 04:45:11;;;;;;;;;;;;;;;19.45;49.34;98573.06;2060570;28;2072;-72
2024/01/04 04:46:13;;;;;;;;;;;;;;;19.44;49.36;98569.44;2057171;28;1623;-71
2024/01/04 04:47:14;;;;;;;;;;;;;;;19.46;49.37;98580.22;2057254;28;1947;-73
2024/01/04 04:48:16;;;;;;;;;;;;;;;19.44;49.38;98568.72;2062395;28;1623;-72
2024/01/04 04:49:18;;;;;;;;;;;;;;;19.44;49.50;98572.31;2059213;28;2007;-71
2024/01/04 04:50:19;;;;;;;;;;;;;;;19.46;49.30;98574.50;2061676;28;1631;-73
2024/01/04 04:51:22;;;;;;;;;;;;;;;19.46;49.23;98571.63;2062164;28;1755;-73
2024/01/04 04:52:24;;;;;;;;;;;;;;;19.46;49.20;98574.50;2061507;28;1980;-71
2024/01/04 04:53:25;;;;;;;;;;;;;;;19.45;49.31;98579.53;2059635;28;1619;-71
2024/01/04 04:54:26;;;;;;;;;;;;;;;19.46;49.24;98585.97;2053782;28;2085;-73
2024/01/04 04:55:28;;;;;;;;;;;;;;;19.46;49.30;98583.09;2055057;28;2361;-73
2024/01/04 04:56:29;;;;;;;;;;;;;;;19.46;49.34;98580.22;2061302;28;2072;-73
2024/01/04 04:57:31;;;;;;;;;;;;;;;19.47;49.30;98587.44;2062096;28;2399;-71
2024/01/04 04:58:32;;;;;;;;;;;;;;;19.48;49.47;98591.03;2059795;28;2101;-71
2024/01/04 04:59:34;;;;;;;;;;;;;;;19.48;49.41;98588.88;2060118;28;2158;-71
2024/01/04 05:00:35;;;;;;;;;;;;;;;19.50;49.47;98585.31;2059204;28;6065;-71
2024/01/04 05:01:36;;;;;;;;;;;;;;;19.49;49.60;98590.31;2064906;28;2345;-72
2024/01/04 05:02:38;;;;;;;;;;;;;;;19.49;49.42;98590.31;2057793;28;2100;-71
2024/01/04 05:03:39;;;;;;;;;;;;;;;19.49;49.31;98584.56;2059572;28;2247;-71
2024/01/04 05:04:41;;;;;;;;;;;;;;;19.50;49.47;98580.31;2062893;28;1659;-71
2024/01/04 05:05:42;;;;;;;;;;;;;;;19.51;49.41;98596.09;2063456;28;2395;-71
2024/01/04 05:06:44;;;;;;;;;;;;;;;19.51;49.55;98592.50;2059725;28;2245;-71
2024/01/04 05:07:45;;;;;;;;;;;;;;;19.51;49.51;98590.34;2060673;28;2062;-71
2024/01/04 05:08:47;;;;;;;;;;;;;;;19.50;49.50;98586.03;2056742;28;2065;-71
2024/01/04 05:09:48;;;;;;;;;;;;;;;19.50;49.47;98591.78;2059797;28;1671;-71
2024/01/04 05:10:49;;;;;;;;;;;;;;;19.50;49.25;98594.66;2060990;28;1927;-72
2024/01/04 05:11:51;;;;;;;;;;;;;;;19.51;49.44;98598.97;2060406;28;1885;-71
2024/01/04 05:12:52;;;;;;;;;;;;;;;19.50;49.44;98597.53;2061865;28;1616;-69
2024/01/04 05:13:54;;;;;;;;;;;;;;;19.50;49.50;98603.25;2063515;28;1718;-71
2024/01/04 05:14:55;;;;;;;;;;;;;;;19.50;49.55;98603.25;2060575;28;1939;-71
2024/01/04 05:15:56;;;;;;;;;;;;;;;19.50;49.61;98597.53;2062177;28;1558;-71
2024/01/04 05:16:58;;;;;;;;;;;;;;;19.49;49.51;98596.06;2061468;28;1675;-70
2024/01/04 05:17:59;;;;;;;;;;;;;;;19.50;49.45;98600.38;2062087;28;1583;-71
2024/01/04 05:19:01;;;;;;;;;;;;;;;19.49;49.31;98596.06;2059283;28;2138;-65
2024/01/04 05:20:04;;;;;;;;;;;;;;;19.49;49.49;98598.22;2063331;28;1873;-65
2024/01/04 05:21:05;;;;;;;;;;;;;;;19.49;49.51;98601.78;2060656;28;2085;-66
2024/01/04 05:22:07;;;;;;;;;;;;;;;19.49;49.46;98607.53;2059129;28;2051;-66
2024/01/04 05:23:08;;;;;;;;;;;;;;;19.50;49.62;98609.00;2063420;28;1932;-73
2024/01/04 05:24:09;;;;;;;;;;;;;;;19.49;49.48;98613.28;2063688;28;2259;-73
2024/01/04 05:25:12;;;;;;;;;;;;;;;19.51;49.48;98610.44;2060929;28;1726;-72